Time;durP1;ratioP1;P1;durP2;ratioP2;P2;SDS_P1;SDS_P2;PMS_P1;PMS_P2;Temp;Humidity;BMP_temperature;BMP_pressure;BME280_temperature;BME280_humidity;BME280_pressure;Samples;Min_cycle;Max_cycle;Signal;HPM_P1;HPM_P2
2024/01/06 00:01:38;;;;;;;4.40;2.60;;;11.50;67.00;;;;;;6257921;28;20430;-79
2024/01/06 00:04:39;;;;;;;5.13;3.00;;;11.50;66.90;;;;;;6267572;28;20115;-78
2024/01/06 00:07:40;;;;;;;5.82;2.47;;;11.50;66.90;;;;;;6264046;28;20490;-78
2024/01/06 00:10:44;;;;;;;4.03;2.25;;;11.50;66.80;;;;;;6268364;28;20420;-80
2024/01/06 00:13:45;;;;;;;5.43;2.58;;;11.50;66.80;;;;;;6247607;28;20025;-80
2024/01/06 00:16:46;;;;;;;4.60;2.15;;;11.40;66.70;;;;;;6250054;28;20083;-79
2024/01/06 00:19:50;;;;;;;4.03;2.90;;;11.40;66.70;;;;;;6296945;28;20551;-79
2024/01/06 00:22:51;;;;;;;4.40;2.88;;;11.50;66.70;;;;;;6267380;28;20059;-78
2024/01/06 00:25:52;;;;;;;5.28;2.72;;;11.50;66.80;;;;;;6298098;28;20496;-80
2024/01/06 00:28:54;;;;;;;3.13;2.10;;;11.50;66.70;;;;;;6262659;28;20017;-81
2024/01/06 00:31:55;;;;;;;5.65;3.40;;;11.50;66.70;;;;;;6249800;28;20040;-80
2024/01/06 00:34:58;;;;;;;3.90;2.90;;;11.50;66.70;;;;;;6259636;28;20024;-79
2024/01/06 00:38:04;;;;;;;6.65;3.17;;;11.50;66.70;;;;;;6252510;28;20457;-79
2024/01/06 00:41:06;;;;;;;6.28;3.83;;;11.50;66.80;;;;;;6261035;28;20024;-78
2024/01/06 00:44:06;;;;;;;9.73;5.20;;;11.50;66.80;;;;;;6275569;28;20033;-79
2024/01/06 00:47:07;;;;;;;6.35;3.58;;;11.50;67.00;;;;;;6264303;28;20422;-78
2024/01/06 00:50:08;;;;;;;9.18;4.90;;;11.40;66.90;;;;;;6251026;28;20028;-78
2024/01/06 00:53:12;;;;;;;10.68;4.93;;;11.40;67.10;;;;;;6273565;28;20020;-79
2024/01/06 00:56:12;;;;;;;12.98;4.90;;;11.30;67.20;;;;;;6266561;28;20140;-78
2024/01/06 00:59:14;;;;;;;11.30;4.57;;;11.30;67.50;;;;;;6272494;28;20081;-79
2024/01/06 01:02:15;;;;;;;10.38;3.47;;;11.20;67.80;;;;;;6271236;28;20049;-79
2024/01/06 01:05:17;;;;;;;5.85;3.63;;;11.20;68.00;;;;;;6272168;28;20044;-77
2024/01/06 01:08:18;;;;;;;6.68;3.63;;;11.10;68.10;;;;;;6241910;28;20028;-79
2024/01/06 01:11:19;;;;;;;9.93;4.60;;;11.20;68.40;;;;;;6248553;28;20104;-79
2024/01/06 01:14:20;;;;;;;9.77;5.32;;;11.20;68.40;;;;;;6273857;28;20111;-78
2024/01/06 01:17:23;;;;;;;10.98;5.20;;;11.20;68.40;;;;;;6252931;28;20460;-78
2024/01/06 01:20:23;;;;;;;17.70;7.22;;;11.30;68.40;;;;;;6261310;28;20020;-80
2024/01/06 01:23:24;;;;;;;14.13;6.18;;;11.30;68.40;;;;;;6237551;28;20040;-79
2024/01/06 01:26:26;;;;;;;12.93;6.70;;;11.40;68.30;;;;;;6264787;28;20059;-79
2024/01/06 01:29:27;;;;;;;16.85;6.15;;;11.40;68.20;;;;;;6266278;28;20020;-78
2024/01/06 01:32:27;;;;;;;13.27;6.85;;;11.30;68.10;;;;;;6271316;28;20012;-77
2024/01/06 01:35:28;;;;;;;17.23;7.38;;;11.30;68.00;;;;;;6254696;28;20116;-78
2024/01/06 01:38:29;;;;;;;13.18;6.82;;;11.30;68.10;;;;;;6267861;28;20020;-77
2024/01/06 01:41:30;;;;;;;14.32;7.30;;;11.30;68.10;;;;;;6269558;28;20028;-78
2024/01/06 01:44:31;;;;;;;14.57;7.30;;;11.30;68.00;;;;;;6234168;28;20059;-78
2024/01/06 01:47:34;;;;;;;18.80;8.02;;;11.30;68.10;;;;;;6256407;28;20047;-78
2024/01/06 01:50:35;;;;;;;16.65;7.75;;;11.30;68.20;;;;;;6271866;28;20033;-79
2024/01/06 01:53:36;;;;;;;15.15;7.68;;;11.30;68.10;;;;;;6265164;28;20072;-78
2024/01/06 01:56:39;;;;;;;15.52;5.88;;;11.30;68.20;;;;;;6274817;28;20104;-79
2024/01/06 01:59:40;;;;;;;14.50;7.57;;;11.30;68.30;;;;;;6262433;28;20025;-79
2024/01/06 02:02:41;;;;;;;14.18;6.03;;;11.30;68.30;;;;;;6269265;28;20538;-76
2024/01/06 02:05:45;;;;;;;11.48;6.35;;;11.30;68.20;;;;;;6266318;28;20060;-78
2024/01/06 02:08:46;;;;;;;11.45;4.15;;;11.40;68.20;;;;;;6247592;28;20536;-78
2024/01/06 02:11:48;;;;;;;5.47;3.17;;;11.40;68.20;;;;;;6270769;28;20128;-78
2024/01/06 02:14:49;;;;;;;6.53;2.67;;;11.40;68.20;;;;;;6251766;28;20024;-79
2024/01/06 02:17:50;;;;;;;3.58;1.80;;;11.40;68.20;;;;;;6268901;28;20105;-78
2024/01/06 02:20:57;;;;;;;2.13;1.23;;;11.40;68.20;;;;;;6265864;28;20121;-80
2024/01/06 02:23:59;;;;;;;4.22;1.40;;;11.40;68.10;;;;;;6268410;28;20051;-78
2024/01/06 02:27:00;;;;;;;3.20;1.17;;;11.40;68.00;;;;;;6248208;28;20063;-79
2024/01/06 02:30:01;;;;;;;1.13;0.85;;;11.40;68.00;;;;;;6245976;28;20025;-78
2024/01/06 02:33:02;;;;;;;2.28;0.90;;;11.40;68.00;;;;;;6269936;28;20039;-79
2024/01/06 02:36:03;;;;;;;1.58;1.08;;;11.40;67.90;;;;;;6264022;28;20445;-78
2024/01/06 02:39:04;;;;;;;1.50;0.77;;;11.40;67.80;;;;;;6262735;28;20080;-78
2024/01/06 02:42:06;;;;;;;1.27;0.93;;;11.40;67.60;;;;;;6263862;28;20536;-78
2024/01/06 02:45:11;;;;;;;1.10;0.70;;;11.50;67.40;;;;;;6267210;28;20055;-78
2024/01/06 02:48:30;;;;;;;2.47;0.80;;;11.50;67.30;;;;;;6267352;28;20527;-78
2024/01/06 02:51:31;;;;;;;1.15;0.63;;;11.50;67.00;;;;;;6253477;28;20036;-78
2024/01/06 02:54:32;;;;;;;4.07;1.20;;;11.50;66.70;;;;;;6287091;28;20036;-77
2024/01/06 02:57:33;;;;;;;1.05;0.80;;;11.40;66.60;;;;;;6272447;28;20869;-78
2024/01/06 03:00:35;;;;;;;0.82;0.57;;;11.40;66.50;;;;;;6287925;28;20083;-78
2024/01/06 03:03:37;;;;;;;0.88;0.85;;;11.40;66.40;;;;;;6265537;28;20040;-78
2024/01/06 03:06:38;;;;;;;1.77;0.90;;;11.40;66.40;;;;;;6279541;28;20024;-77
2024/01/06 03:09:40;;;;;;;0.75;0.75;;;11.40;66.40;;;;;;6254962;28;20032;-79
2024/01/06 03:12:41;;;;;;;2.22;0.70;;;11.40;66.30;;;;;;6273189;28;20597;-79
2024/01/06 03:15:41;;;;;;;2.75;1.20;;;11.40;66.20;;;;;;6270037;28;20027;-78
2024/01/06 03:18:42;;;;;;;1.50;1.10;;;11.40;66.00;;;;;;6251818;28;20032;-78
2024/01/06 03:21:44;;;;;;;2.58;1.25;;;11.40;66.00;;;;;;6266955;28;20013;-78
2024/01/06 03:24:45;;;;;;;1.23;0.75;;;11.40;65.80;;;;;;6269125;28;20399;-79
2024/01/06 03:27:46;;;;;;;0.80;0.70;;;11.40;65.60;;;;;;6247752;28;20155;-78
2024/01/06 03:30:47;;;;;;;2.00;1.08;;;11.40;66.40;;;;;;6264863;28;20048;-78
2024/01/06 03:33:48;;;;;;;2.28;0.98;;;11.30;65.60;;;;;;6267539;28;20402;-78
2024/01/06 03:36:51;;;;;;;1.60;1.10;;;11.30;65.70;;;;;;6265784;28;20031;-79
2024/01/06 03:39:53;;;;;;;1.13;0.45;;;11.20;65.70;;;;;;6221391;28;20109;-79
2024/01/06 03:42:56;;;;;;;1.90;0.85;;;11.20;65.90;;;;;;6269190;28;20489;-79
2024/01/06 03:46:00;;;;;;;4.47;1.00;;;11.10;66.00;;;;;;6263101;28;20024;-78
2024/01/06 03:49:02;;;;;;;4.18;1.75;;;11.10;66.20;;;;;;6263192;28;20195;-78
2024/01/06 03:52:03;;;;;;;1.75;0.73;;;11.00;66.20;;;;;;6248167;28;20092;-79
2024/01/06 03:55:05;;;;;;;1.73;0.93;;;11.10;66.20;;;;;;6257893;28;20377;-79
2024/01/06 03:58:06;;;;;;;1.48;0.98;;;11.10;66.10;;;;;;6233044;28;20056;-78
2024/01/06 04:01:07;;;;;;;1.65;1.00;;;11.10;65.90;;;;;;6263121;28;20127;-78
2024/01/06 04:04:08;;;;;;;2.00;1.13;;;11.10;65.70;;;;;;6265695;28;20036;-79
2024/01/06 04:07:09;;;;;;;5.00;1.52;;;11.10;65.60;;;;;;6267100;28;20013;-78
2024/01/06 04:10:10;;;;;;;1.30;0.68;;;11.10;65.60;;;;;;6261383;28;20020;-76
2024/01/06 04:13:11;;;;;;;1.52;1.02;;;11.10;65.50;;;;;;6232852;28;20040;-77
2024/01/06 04:16:15;;;;;;;5.25;1.15;;;11.10;65.40;;;;;;6272259;28;20456;-79
2024/01/06 04:19:16;;;;;;;1.65;0.95;;;11.10;65.40;;;;;;6265578;28;20046;-79
2024/01/06 04:22:18;;;;;;;1.52;0.80;;;11.10;65.20;;;;;;6272395;28;20072;-77
2024/01/06 04:25:19;;;;;;;3.80;1.23;;;11.10;65.00;;;;;;6243364;28;20499;-78
2024/01/06 04:28:21;;;;;;;1.42;1.00;;;11.10;64.80;;;;;;6271697;28;20055;-79
2024/01/06 04:31:23;;;;;;;2.38;0.77;;;11.10;64.80;;;;;;6248540;28;20123;-79
2024/01/06 04:34:24;;;;;;;1.60;0.75;;;11.00;64.60;;;;;;6251588;28;20111;-77
2024/01/06 04:37:25;;;;;;;1.33;0.70;;;11.00;64.70;;;;;;6270280;28;20440;-77
2024/01/06 04:40:27;;;;;;;1.00;0.60;;;10.90;64.70;;;;;;6272302;28;20032;-78
2024/01/06 04:43:28;;;;;;;1.40;1.00;;;10.90;64.60;;;;;;6238251;28;20036;-77
2024/01/06 04:46:32;;;;;;;1.08;0.50;;;10.90;64.70;;;;;;6269715;28;20616;-78
2024/01/06 04:49:33;;;;;;;1.95;1.13;;;10.80;65.50;;;;;;6249684;28;20108;-78
2024/01/06 04:52:34;;;;;;;1.88;0.95;;;10.80;64.80;;;;;;6265718;28;20362;-77
2024/01/06 04:55:35;;;;;;;5.10;0.90;;;10.80;64.90;;;;;;6269158;28;20043;-78
2024/01/06 04:58:36;;;;;;;1.27;0.93;;;10.80;65.00;;;;;;6268517;28;20075;-76
2024/01/06 05:01:38;;;;;;;0.98;0.60;;;10.80;64.80;;;;;;6269482;28;20035;-77
2024/01/06 05:04:39;;;;;;;1.67;0.60;;;10.80;64.80;;;;;;6264898;28;20031;-75
2024/01/06 05:07:41;;;;;;;7.55;1.10;;;10.80;64.80;;;;;;6267962;28;20013;-77
2024/01/06 05:10:42;;;;;;;3.75;0.77;;;10.70;64.70;;;;;;6265309;28;20014;-79
2024/01/06 05:13:43;;;;;;;1.50;0.90;;;10.70;64.80;;;;;;6259756;28;20431;-80
2024/01/06 05:16:44;;;;;;;5.50;1.23;;;10.70;64.80;;;;;;6237549;28;20059;-78
2024/01/06 05:19:45;;;;;;;0.68;0.68;;;10.70;64.90;;;;;;6256575;28;20033;-78
2024/01/06 05:22:46;;;;;;;0.93;0.77;;;10.70;64.90;;;;;;6269012;28;20020;-77
2024/01/06 05:25:47;;;;;;;2.80;0.63;;;10.70;64.90;;;;;;6271600;28;20021;-78
2024/01/06 05:28:48;;;;;;;1.40;1.08;;;10.60;64.80;;;;;;6266444;28;20018;-78
2024/01/06 05:31:51;;;;;;;3.45;1.25;;;10.60;64.70;;;;;;6251529;28;20392;-79
2024/01/06 05:34:52;;;;;;;2.40;0.88;;;10.60;64.70;;;;;;6273471;28;20140;-78
2024/01/06 05:37:54;;;;;;;4.43;1.17;;;10.50;65.00;;;;;;6269123;28;20361;-78
2024/01/06 05:40:56;;;;;;;1.95;1.08;;;10.50;65.10;;;;;;6266846;28;20467;-78
2024/01/06 05:43:57;;;;;;;0.88;0.80;;;10.50;65.30;;;;;;6256147;28;20037;-78
2024/01/06 05:46:58;;;;;;;1.05;0.65;;;10.50;65.20;;;;;;6266116;28;20048;-79
2024/01/06 05:49:59;;;;;;;5.00;1.25;;;10.50;65.10;;;;;;6250475;28;21448;-78
2024/01/06 05:53:00;;;;;;;1.45;1.02;;;10.50;65.00;;;;;;6269396;28;20097;-78
2024/01/06 05:56:01;;;;;;;1.70;1.00;;;10.50;64.80;;;;;;6268634;28;20043;-77
2024/01/06 05:59:03;;;;;;;1.52;0.60;;;10.60;64.70;;;;;;6268241;28;20020;-77
2024/01/06 06:02:05;;;;;;;0.65;0.60;;;10.60;64.70;;;;;;6266027;28;20063;-78
2024/01/06 06:05:06;;;;;;;0.90;0.57;;;10.60;64.50;;;;;;6249940;28;20029;-77
2024/01/06 06:08:07;;;;;;;2.95;1.00;;;10.50;64.40;;;;;;6265592;28;20013;-78
2024/01/06 06:11:11;;;;;;;3.28;1.38;;;10.50;64.40;;;;;;6254464;28;20021;-77
2024/01/06 06:14:12;;;;;;;1.33;0.80;;;10.50;64.30;;;;;;6257853;28;20421;-79
2024/01/06 06:17:13;;;;;;;1.60;0.45;;;10.50;64.20;;;;;;6303559;28;20062;-78
2024/01/06 06:20:16;;;;;;;3.53;0.75;;;10.50;64.20;;;;;;6253788;28;20025;-78
2024/01/06 06:23:17;;;;;;;3.63;0.90;;;10.50;64.20;;;;;;6246457;28;20045;-78
2024/01/06 06:26:18;;;;;;;5.80;1.25;;;10.40;64.10;;;;;;6270531;28;20039;-77
2024/01/06 06:29:20;;;;;;;0.90;0.63;;;10.40;64.10;;;;;;6267616;28;20013;-78
2024/01/06 06:32:22;;;;;;;0.93;0.52;;;10.40;64.10;;;;;;6269676;28;20021;-78
2024/01/06 06:35:24;;;;;;;0.88;0.60;;;10.40;64.10;;;;;;6229597;28;20123;-77
2024/01/06 06:38:26;;;;;;;1.05;0.63;;;10.40;64.10;;;;;;6269762;28;20024;-78
2024/01/06 06:41:28;;;;;;;5.65;1.05;;;10.30;64.20;;;;;;6265215;28;20028;-79
2024/01/06 06:44:29;;;;;;;1.13;0.70;;;10.30;64.50;;;;;;6245038;28;20075;-78
2024/01/06 06:47:31;;;;;;;0.63;0.45;;;10.20;64.40;;;;;;6261323;28;20527;-79
2024/01/06 06:50:34;;;;;;;1.20;0.65;;;10.20;64.70;;;;;;6250639;28;20033;-78
2024/01/06 06:53:38;;;;;;;3.10;1.27;;;10.10;65.00;;;;;;6266696;28;20110;-77
2024/01/06 06:56:39;;;;;;;3.83;0.70;;;10.10;65.10;;;;;;6268402;28;20119;-76
2024/01/06 06:59:41;;;;;;;1.42;0.85;;;10.10;65.20;;;;;;6267799;28;20023;-79
2024/01/06 07:02:42;;;;;;;4.63;0.85;;;10.10;65.30;;;;;;6251190;28;20017;-78
2024/01/06 07:05:44;;;;;;;3.78;0.85;;;10.10;65.50;;;;;;6269646;28;20035;-78
2024/01/06 07:08:45;;;;;;;1.85;1.35;;;10.00;65.60;;;;;;6267537;28;20505;-78
2024/01/06 07:11:46;;;;;;;5.15;1.00;;;10.00;65.60;;;;;;6268143;28;20397;-79
2024/01/06 07:14:49;;;;;;;5.53;1.05;;;10.00;65.70;;;;;;6252203;28;20520;-78
2024/01/06 07:17:51;;;;;;;3.92;0.80;;;10.00;65.50;;;;;;6268110;28;20040;-78
2024/01/06 07:20:52;;;;;;;1.55;0.73;;;10.00;65.50;;;;;;6246142;28;20047;-79
2024/01/06 07:23:52;;;;;;;0.60;0.60;;;10.00;65.50;;;;;;6264481;28;20535;-77
2024/01/06 07:26:53;;;;;;;1.48;0.80;;;10.00;65.30;;;;;;6265119;28;20029;-79
2024/01/06 07:29:55;;;;;;;16.48;1.15;;;10.00;65.30;;;;;;6251586;28;20035;-78
2024/01/06 07:32:57;;;;;;;3.15;0.68;;;10.00;65.60;;;;;;6272283;28;20029;-78
2024/01/06 07:35:58;;;;;;;1.00;0.73;;;10.00;65.60;;;;;;6248297;28;20035;-78
2024/01/06 07:39:00;;;;;;;25.50;1.55;;;10.00;65.60;;;;;;6245077;28;20013;-79
2024/01/06 07:42:03;;;;;;;1.00;0.90;;;10.00;65.70;;;;;;6252309;28;20471;-80
2024/01/06 07:45:05;;;;;;;1.20;0.50;;;10.00;65.70;;;;;;6269157;28;20438;-78
2024/01/06 07:48:06;;;;;;;3.53;0.93;;;10.00;65.70;;;;;;6267370;28;20051;-77
2024/01/06 07:51:07;;;;;;;1.75;0.57;;;10.00;65.70;;;;;;6243291;28;20032;-78
2024/01/06 07:54:11;;;;;;;1.50;0.85;;;10.00;65.20;;;;;;6269332;28;20126;-77
2024/01/06 07:57:13;;;;;;;0.50;0.50;;;10.00;65.10;;;;;;6265909;28;20432;-78
2024/01/06 08:00:18;;;;;;;1.73;1.05;;;10.00;65.20;;;;;;6270512;28;20039;-77
2024/01/06 08:03:19;;;;;;;1.40;0.50;;;10.00;65.20;;;;;;6265665;28;20115;-76
2024/01/06 08:06:20;;;;;;;4.00;0.88;;;10.00;65.20;;;;;;6264951;28;20108;-79
2024/01/06 08:09:22;;;;;;;4.72;0.95;;;9.90;65.20;;;;;;6269957;28;20036;-78
2024/01/06 08:12:25;;;;;;;0.88;0.60;;;9.90;65.30;;;;;;6263511;28;20036;-79
2024/01/06 08:15:26;;;;;;;4.05;0.82;;;9.80;65.30;;;;;;6250279;28;20151;-77
2024/01/06 08:18:27;;;;;;;0.95;0.88;;;9.80;65.50;;;;;;6267552;28;20031;-78
2024/01/06 08:21:30;;;;;;;2.08;0.60;;;9.80;65.80;;;;;;6272536;28;20031;-78
2024/01/06 08:24:30;;;;;;;0.55;0.55;;;9.80;65.80;;;;;;6281349;28;20037;-78
2024/01/06 08:27:33;;;;;;;0.95;0.43;;;9.80;65.70;;;;;;6264857;28;20045;-76
2024/01/06 08:30:34;;;;;;;2.15;0.70;;;9.80;65.80;;;;;;6265087;28;20021;-77
2024/01/06 08:33:34;;;;;;;0.80;0.77;;;9.80;66.00;;;;;;6248826;28;20088;-77
2024/01/06 08:36:35;;;;;;;1.25;0.98;;;9.80;65.80;;;;;;6265796;28;20043;-77
2024/01/06 08:39:38;;;;;;;1.20;0.80;;;9.90;65.60;;;;;;6262069;28;20116;-76
2024/01/06 08:42:38;;;;;;;2.00;0.65;;;9.90;65.20;;;;;;6249229;28;20126;-78
2024/01/06 08:45:39;;;;;;;2.90;1.05;;;10.00;65.20;;;;;;6259953;28;20070;-77
2024/01/06 08:48:42;;;;;;;2.40;0.60;;;10.00;65.20;;;;;;6295519;28;20031;-76
2024/01/06 08:51:43;;;;;;;1.27;0.80;;;10.00;64.80;;;;;;6250345;28;20111;-78
2024/01/06 08:54:45;;;;;;;0.80;0.80;;;10.10;64.50;;;;;;6255149;28;20135;-79
2024/01/06 08:57:46;;;;;;;0.80;0.60;;;10.10;64.20;;;;;;6235644;28;20087;-78
2024/01/06 09:00:49;;;;;;;6.18;1.13;;;10.10;64.00;;;;;;6259202;28;20485;-79
2024/01/06 09:03:50;;;;;;;0.85;0.80;;;10.10;64.20;;;;;;6249157;28;20111;-78
2024/01/06 09:06:51;;;;;;;9.35;0.82;;;10.00;64.60;;;;;;6270369;28;20496;-76
2024/01/06 09:09:57;;;;;;;4.15;0.95;;;10.00;64.70;;;;;;6281746;28;20424;-76
2024/01/06 09:12:58;;;;;;;2.15;1.20;;;9.90;64.80;;;;;;6252850;28;20085;-81
2024/01/06 09:16:02;;;;;;;5.53;1.02;;;9.80;65.00;;;;;;6268192;28;20056;-79
2024/01/06 09:19:03;;;;;;;1.15;0.93;;;9.80;65.10;;;;;;6266148;28;20150;-80
2024/01/06 09:22:04;;;;;;;5.63;1.27;;;9.70;65.20;;;;;;6268981;28;20560;-80
2024/01/06 09:25:06;;;;;;;4.18;1.20;;;9.60;65.60;;;;;;6277618;28;20048;-76
2024/01/06 09:28:06;;;;;;;3.75;1.30;;;9.60;65.80;;;;;;6256984;28;20041;-78
2024/01/06 09:31:07;;;;;;;0.77;0.77;;;9.60;65.80;;;;;;6271405;28;20336;-78
2024/01/06 09:34:10;;;;;;;6.32;1.25;;;9.50;65.80;;;;;;6270448;28;20047;-79
2024/01/06 09:37:11;;;;;;;4.95;1.92;;;9.50;65.90;;;;;;6258352;28;20025;-77
2024/01/06 09:40:14;;;;;;;2.33;0.90;;;9.40;66.10;;;;;;6281337;28;20036;-78
2024/01/06 09:43:15;;;;;;;1.75;1.42;;;9.40;66.20;;;;;;6268498;28;20094;-80
2024/01/06 09:46:20;;;;;;;2.97;1.33;;;9.30;66.40;;;;;;6253022;28;20556;-78
2024/01/06 09:49:23;;;;;;;4.28;1.17;;;9.30;66.60;;;;;;6253841;28;20413;-78
2024/01/06 09:52:26;;;;;;;6.28;1.20;;;9.20;66.90;;;;;;6250290;28;20056;-79
2024/01/06 09:55:28;;;;;;;3.67;1.80;;;9.20;67.20;;;;;;6251853;28;20067;-78
2024/01/06 09:58:34;;;;;;;1.88;1.23;;;9.20;67.30;;;;;;6265838;28;20519;-80
2024/01/06 10:01:36;;;;;;;5.28;1.38;;;9.30;67.50;;;;;;6264295;28;20736;-79
2024/01/06 10:04:37;;;;;;;1.33;0.95;;;9.30;67.20;;;;;;6297389;28;20781;-78
2024/01/06 10:07:43;;;;;;;2.17;1.50;;;9.30;67.10;;;;;;6264167;28;20441;-78
2024/01/06 10:10:45;;;;;;;5.55;1.33;;;9.40;66.90;;;;;;6283718;28;20061;-78
2024/01/06 10:13:48;;;;;;;0.60;0.60;;;9.40;66.50;;;;;;6271991;28;20342;-78
2024/01/06 10:16:51;;;;;;;2.80;1.15;;;9.40;66.30;;;;;;6251077;28;20021;-78
2024/01/06 10:19:53;;;;;;;11.02;1.58;;;9.50;66.30;;;;;;6283666;28;20341;-78
2024/01/06 10:22:54;;;;;;;2.00;1.33;;;9.40;66.30;;;;;;6253903;28;20053;-78
2024/01/06 10:25:56;;;;;;;5.35;1.27;;;9.40;66.20;;;;;;6262826;28;20032;-78
2024/01/06 10:28:57;;;;;;;3.33;0.85;;;9.40;65.90;;;;;;6250681;28;20024;-78
2024/01/06 10:31:59;;;;;;;5.07;1.90;;;9.40;65.70;;;;;;6297565;28;20325;-78
2024/01/06 10:35:03;;;;;;;1.55;0.90;;;9.40;65.70;;;;;;6266741;28;20031;-77
2024/01/06 10:38:06;;;;;;;1.30;1.05;;;9.40;65.70;;;;;;6296286;28;20029;-78
2024/01/06 10:41:07;;;;;;;2.38;1.25;;;9.40;65.70;;;;;;6264143;28;20535;-77
2024/01/06 10:44:10;;;;;;;4.85;1.10;;;9.50;65.40;;;;;;6263856;28;20115;-79
2024/01/06 10:47:13;;;;;;;1.02;0.93;;;9.50;65.20;;;;;;6265615;28;20487;-78
2024/01/06 10:50:21;;;;;;;1.80;1.30;;;9.60;65.00;;;;;;6267602;28;20036;-76
2024/01/06 10:53:25;;;;;;;1.02;0.90;;;9.60;65.00;;;;;;6255852;28;20028;-79
2024/01/06 10:56:26;;;;;;;3.08;1.23;;;9.50;65.00;;;;;;6260214;28;20082;-78
2024/01/06 10:59:32;;;;;;;2.75;1.40;;;9.70;65.10;;;;;;6272524;28;20017;-78
2024/01/06 11:02:35;;;;;;;7.90;1.25;;;9.70;65.20;;;;;;6270581;28;20021;-78
2024/01/06 11:05:37;;;;;;;3.75;1.35;;;9.70;65.00;;;;;;6246061;28;20111;-78
2024/01/06 11:09:04;;;;;;;4.88;1.63;;;9.70;65.00;;;;;;6266591;28;20021;-79
2024/01/06 11:12:07;;;;;;;4.30;1.50;;;9.70;65.20;;;;;;6257323;28;20078;-79
2024/01/06 11:15:08;;;;;;;3.10;1.50;;;9.60;65.20;;;;;;6271942;28;20036;-79
2024/01/06 11:18:33;;;;;;;0.95;0.85;;;9.60;65.40;;;;;;6264877;28;20135;-79
2024/01/06 11:21:35;;;;;;;4.47;1.27;;;9.60;65.40;;;;;;6270318;28;20076;-79
2024/01/06 11:24:37;;;;;;;1.17;1.02;;;9.50;65.50;;;;;;6238634;28;20155;-78
2024/01/06 11:27:38;;;;;;;1.98;1.17;;;9.50;65.80;;;;;;6266541;28;20445;-78
2024/01/06 11:30:40;;;;;;;1.33;1.05;;;9.50;65.80;;;;;;6265365;28;20023;-78
2024/01/06 11:33:44;;;;;;;4.85;1.05;;;9.50;65.80;;;;;;6269466;28;20111;-79
2024/01/06 11:36:48;;;;;;;2.63;1.48;;;9.40;65.90;;;;;;6264705;28;20056;-77
2024/01/06 11:39:50;;;;;;;5.30;1.25;;;9.40;66.60;;;;;;6293483;28;20159;-76
2024/01/06 11:43:09;;;;;;;2.85;1.30;;;9.40;66.00;;;;;;6268667;28;20025;-79
2024/01/06 11:46:12;;;;;;;4.63;2.45;;;9.40;65.90;;;;;;6266412;28;20575;-78
2024/01/06 11:49:15;;;;;;;11.13;1.85;;;9.50;66.00;;;;;;6267454;28;20097;-77
2024/01/06 11:52:18;;;;;;;4.53;1.52;;;9.50;65.80;;;;;;6266893;28;20016;-79
2024/01/06 11:55:23;;;;;;;2.20;1.23;;;9.60;65.60;;;;;;6269257;28;20345;-78
2024/01/06 11:58:25;;;;;;;2.85;1.95;;;9.70;65.60;;;;;;6261870;28;20012;-78
2024/01/06 12:01:26;;;;;;;4.68;1.52;;;9.70;65.00;;;;;;6248528;28;20021;-77
2024/01/06 12:04:28;;;;;;;3.78;1.65;;;9.80;64.60;;;;;;6262606;28;20063;-79
2024/01/06 12:07:31;;;;;;;3.38;1.33;;;9.80;64.40;;;;;;6265212;28;20039;-78
2024/01/06 12:10:33;;;;;;;3.83;1.60;;;9.80;64.30;;;;;;6267061;28;20026;-77
2024/01/06 12:13:35;;;;;;;8.93;2.20;;;9.70;64.30;;;;;;6259858;28;20509;-77
2024/01/06 12:16:38;;;;;;;2.20;1.15;;;9.70;64.40;;;;;;6258864;28;20537;-79
2024/01/06 12:19:43;;;;;;;3.97;1.67;;;9.80;64.40;;;;;;6252534;28;20051;-79
2024/01/06 12:22:48;;;;;;;3.05;1.55;;;9.60;64.30;;;;;;6266539;28;20177;-79
2024/01/06 12:25:51;;;;;;;1.92;1.42;;;9.60;64.50;;;;;;6246577;28;20087;-78
2024/01/06 12:28:54;;;;;;;1.80;0.95;;;9.60;64.30;;;;;;6269506;28;20042;-78
2024/01/06 12:31:56;;;;;;;4.20;0.90;;;9.50;64.10;;;;;;6267046;28;20017;-80
2024/01/06 12:34:56;;;;;;;1.23;0.90;;;9.60;63.90;;;;;;6271323;28;20044;-79
2024/01/06 12:37:57;;;;;;;1.95;1.17;;;9.70;63.70;;;;;;6268363;28;20131;-79
2024/01/06 12:40:59;;;;;;;1.48;0.80;;;9.80;63.50;;;;;;6243602;28;20025;-78
2024/01/06 12:44:00;;;;;;;3.03;1.85;;;9.80;62.90;;;;;;6284945;28;20025;-78
2024/01/06 12:47:01;;;;;;;7.03;1.60;;;9.90;62.20;;;;;;6267250;28;20130;-80
2024/01/06 12:50:04;;;;;;;1.23;0.68;;;9.90;61.70;;;;;;6260590;28;20036;-78
2024/01/06 12:53:06;;;;;;;1.55;0.85;;;10.00;61.60;;;;;;6287889;28;20108;-78
2024/01/06 12:56:08;;;;;;;4.53;1.15;;;10.00;61.40;;;;;;6268508;28;20047;-79
2024/01/06 12:59:09;;;;;;;1.60;0.90;;;10.10;61.10;;;;;;6266719;28;20483;-81
2024/01/06 13:02:11;;;;;;;2.88;0.50;;;10.10;60.20;;;;;;6269346;28;20013;-83
2024/01/06 13:05:12;;;;;;;0.57;0.57;;;10.20;59.80;;;;;;6274616;28;20150;-83
2024/01/06 13:08:12;;;;;;;2.05;0.82;;;10.20;59.50;;;;;;6267172;28;20016;-83
2024/01/06 13:11:13;;;;;;;0.60;0.60;;;10.30;59.30;;;;;;6274303;28;20508;-81
2024/01/06 13:14:16;;;;;;;4.78;1.05;;;10.30;58.90;;;;;;6270012;28;20044;-82
2024/01/06 13:17:17;;;;;;;1.02;0.80;;;10.20;58.90;;;;;;6256483;28;20025;-83
2024/01/06 13:20:18;;;;;;;1.85;0.82;;;10.20;59.00;;;;;;6271133;28;20465;-83
2024/01/06 13:23:19;;;;;;;0.63;0.63;;;10.10;58.90;;;;;;6255008;28;20532;-82
2024/01/06 13:26:20;;;;;;;0.55;0.32;;;10.10;59.10;;;;;;6233642;28;20124;-82
2024/01/06 13:29:22;;;;;;;1.00;0.70;;;10.00;59.90;;;;;;6273997;28;20017;-82
2024/01/06 13:32:23;;;;;;;0.68;0.50;;;10.00;59.40;;;;;;6273449;28;20025;-83
2024/01/06 13:35:26;;;;;;;0.70;0.70;;;10.00;59.50;;;;;;6273618;28;20078;-83
2024/01/06 13:38:28;;;;;;;0.73;0.68;;;10.00;59.50;;;;;;6273102;28;20083;-83
2024/01/06 13:41:30;;;;;;;6.07;0.60;;;9.90;59.40;;;;;;6270584;28;20025;-82
2024/01/06 13:44:31;;;;;;;1.35;1.17;;;9.80;59.60;;;;;;6254548;28;20090;-81
2024/01/06 13:47:33;;;;;;;3.40;1.50;;;9.70;59.70;;;;;;6267249;28;20108;-83
2024/01/06 13:50:34;;;;;;;2.17;1.25;;;9.70;60.10;;;;;;6252986;28;20040;-83
2024/01/06 13:53:35;;;;;;;3.20;1.33;;;9.80;60.60;;;;;;6271110;28;20036;-81
2024/01/06 13:56:37;;;;;;;3.75;1.20;;;9.70;60.60;;;;;;6267488;28;20021;-81
2024/01/06 13:59:42;;;;;;;1.30;0.57;;;9.70;60.30;;;;;;6259129;28;20014;-83
2024/01/06 14:02:43;;;;;;;2.60;1.05;;;9.70;60.00;;;;;;6271087;28;20461;-82
2024/01/06 14:05:46;;;;;;;2.97;1.00;;;9.70;59.90;;;;;;6270146;28;20168;-82
2024/01/06 14:08:48;;;;;;;1.50;0.82;;;9.80;59.90;;;;;;6252078;28;20138;-82
2024/01/06 14:11:50;;;;;;;1.77;0.73;;;9.70;59.70;;;;;;6262811;28;20495;-82
2024/01/06 14:14:51;;;;;;;2.47;1.00;;;9.80;59.80;;;;;;6270723;28;20028;-82
2024/01/06 14:17:53;;;;;;;1.45;1.20;;;9.90;59.80;;;;;;6251097;28;20037;-83
2024/01/06 14:20:55;;;;;;;1.25;0.75;;;10.00;59.50;;;;;;6268165;28;20128;-82
2024/01/06 14:23:58;;;;;;;2.65;0.90;;;10.00;59.30;;;;;;6266978;28;20094;-82
2024/01/06 14:26:59;;;;;;;0.80;0.57;;;10.10;59.20;;;;;;6276827;28;20099;-83
2024/01/06 14:30:00;;;;;;;0.70;0.70;;;10.20;59.00;;;;;;6267323;28;20013;-83
2024/01/06 14:33:01;;;;;;;0.68;0.30;;;10.30;58.70;;;;;;6249150;28;20020;-81
2024/01/06 14:36:03;;;;;;;2.75;0.98;;;10.30;58.40;;;;;;6284107;28;20023;-81
2024/01/06 14:39:06;;;;;;;1.35;0.60;;;10.40;58.40;;;;;;6272642;28;20040;-83
2024/01/06 14:42:09;;;;;;;1.17;0.73;;;10.50;58.40;;;;;;6265348;28;20032;-83
2024/01/06 14:45:11;;;;;;;1.38;0.73;;;10.60;58.20;;;;;;6281264;28;20029;-82
2024/01/06 14:48:12;;;;;;;1.50;0.93;;;10.60;58.00;;;;;;6273338;28;20048;-79
2024/01/06 14:51:13;;;;;;;4.38;1.52;;;10.60;57.80;;;;;;6268352;28;20021;-83
2024/01/06 14:54:14;;;;;;;1.60;0.80;;;10.70;57.80;;;;;;6241837;28;20055;-81
2024/01/06 14:57:15;;;;;;;0.82;0.80;;;10.70;58.00;;;;;;6252629;28;20127;-82
2024/01/06 15:00:16;;;;;;;1.98;1.13;;;10.70;57.90;;;;;;6265801;28;20046;-83
2024/01/06 15:03:17;;;;;;;0.80;0.70;;;10.70;57.90;;;;;;6267930;28;20025;-81
2024/01/06 15:06:18;;;;;;;1.95;0.80;;;10.70;57.90;;;;;;6265925;28;20095;-81
2024/01/06 15:09:20;;;;;;;1.17;0.77;;;10.70;58.00;;;;;;6269341;28;20017;-82
2024/01/06 15:12:22;;;;;;;1.90;1.17;;;10.60;58.10;;;;;;6269180;28;20023;-81
2024/01/06 15:15:23;;;;;;;1.25;1.15;;;10.60;58.20;;;;;;6264089;28;20017;-82
2024/01/06 15:18:24;;;;;;;4.10;0.98;;;10.60;58.30;;;;;;6233081;28;20047;-81
2024/01/06 15:21:29;;;;;;;1.10;1.00;;;10.50;58.40;;;;;;6262918;28;20102;-81
2024/01/06 15:24:30;;;;;;;0.98;0.88;;;10.50;58.50;;;;;;6265549;28;20087;-83
2024/01/06 15:27:32;;;;;;;2.25;0.85;;;10.60;58.50;;;;;;6269402;28;20203;-83
2024/01/06 15:30:33;;;;;;;0.75;0.73;;;10.30;58.50;;;;;;6267488;28;20039;-82
2024/01/06 15:33:34;;;;;;;1.23;0.80;;;10.20;58.50;;;;;;6269360;28;20095;-83
2024/01/06 15:36:35;;;;;;;2.17;1.15;;;10.00;58.80;;;;;;6270403;28;20016;-83
2024/01/06 15:39:39;;;;;;;1.85;0.85;;;9.90;59.10;;;;;;6267549;28;20077;-80
2024/01/06 15:42:40;;;;;;;1.52;1.08;;;9.80;59.40;;;;;;6273282;28;20522;-81
2024/01/06 15:45:41;;;;;;;2.58;1.38;;;9.80;59.60;;;;;;6236843;28;20109;-82
2024/01/06 15:48:42;;;;;;;4.53;1.15;;;9.80;59.60;;;;;;6267049;28;20013;-83
2024/01/06 15:51:45;;;;;;;2.42;1.00;;;9.80;59.60;;;;;;6250285;28;20021;-82